sensor_id;sensor_type;location;lat;lon;timestamp;temperature;humidity
12115;DHT22;6121;49.810;6.418;2024-03-07T00:02:10;7.60;99.90
12115;DHT22;6121;49.810;6.418;2024-03-07T00:04:36;8.10;99.90
12115;DHT22;6121;49.810;6.418;2024-03-07T00:07:03;7.70;99.90
12115;DHT22;6121;49.810;6.418;2024-03-07T00:09:32;7.70;99.90
12115;DHT22;6121;49.810;6.418;2024-03-07T00:11:59;7.90;99.90
12115;DHT22;6121;49.810;6.418;2024-03-07T00:14:25;7.60;99.90
12115;DHT22;6121;49.810;6.418;2024-03-07T00:16:57;7.70;99.90
12115;DHT22;6121;49.810;6.418;2024-03-07T00:21:56;7.50;99.90
12115;DHT22;6121;49.810;6.418;2024-03-07T00:24:22;7.60;99.90
12115;DHT22;6121;49.810;6.418;2024-03-07T00:29:18;7.50;99.90
12115;DHT22;6121;49.810;6.418;2024-03-07T00:31:48;7.50;99.90
12115;DHT22;6121;49.810;6.418;2024-03-07T00:34:14;7.30;99.90
12115;DHT22;6121;49.810;6.418;2024-03-07T00:36:45;7.70;99.90
12115;DHT22;6121;49.810;6.418;2024-03-07T00:39:12;7.60;99.90
12115;DHT22;6121;49.810;6.418;2024-03-07T00:41:39;7.50;99.90
12115;DHT22;6121;49.810;6.418;2024-03-07T00:44:05;7.10;99.90
12115;DHT22;6121;49.810;6.418;2024-03-07T00:48:58;7.30;99.90
12115;DHT22;6121;49.810;6.418;2024-03-07T00:51:24;7.30;99.90
12115;DHT22;6121;49.810;6.418;2024-03-07T00:53:50;7.20;99.90
12115;DHT22;6121;49.810;6.418;2024-03-07T00:56:15;7.20;99.90
12115;DHT22;6121;49.810;6.418;2024-03-07T00:58:41;7.20;99.90
12115;DHT22;6121;49.810;6.418;2024-03-07T01:01:07;7.20;99.90
12115;DHT22;6121;49.810;6.418;2024-03-07T01:03:34;7.60;99.90
12115;DHT22;6121;49.810;6.418;2024-03-07T01:06:00;7.20;99.90
12115;DHT22;6121;49.810;6.418;2024-03-07T01:08:25;7.30;99.90
12115;DHT22;6121;49.810;6.418;2024-03-07T01:13:19;7.20;99.90
12115;DHT22;6121;49.810;6.418;2024-03-07T01:15:48;7.30;99.90
12115;DHT22;6121;49.810;6.418;2024-03-07T01:18:15;7.30;99.90
12115;DHT22;6121;49.810;6.418;2024-03-07T01:20:41;7.30;99.90
12115;DHT22;6121;49.810;6.418;2024-03-07T01:23:06;7.20;99.90
12115;DHT22;6121;49.810;6.418;2024-03-07T01:25:34;7.60;99.90
12115;DHT22;6121;49.810;6.418;2024-03-07T01:28:00;8.10;99.90
12115;DHT22;6121;49.810;6.418;2024-03-07T01:30:28;7.20;99.90
12115;DHT22;6121;49.810;6.418;2024-03-07T01:35:21;7.00;99.90
12115;DHT22;6121;49.810;6.418;2024-03-07T01:37:47;7.40;99.90
12115;DHT22;6121;49.810;6.418;2024-03-07T01:40:13;7.90;99.90
12115;DHT22;6121;49.810;6.418;2024-03-07T01:42:40;7.20;99.90
12115;DHT22;6121;49.810;6.418;2024-03-07T01:45:06;7.60;99.90
12115;DHT22;6121;49.810;6.418;2024-03-07T01:47:35;7.20;99.90
12115;DHT22;6121;49.810;6.418;2024-03-07T01:50:05;7.30;99.90
12115;DHT22;6121;49.810;6.418;2024-03-07T01:54:58;7.10;99.90
12115;DHT22;6121;49.810;6.418;2024-03-07T01:57:24;7.20;99.90
12115;DHT22;6121;49.810;6.418;2024-03-07T01:59:51;7.20;99.90
12115;DHT22;6121;49.810;6.418;2024-03-07T02:02:18;7.30;99.90
12115;DHT22;6121;49.810;6.418;2024-03-07T02:04:44;7.50;99.90
12115;DHT22;6121;49.810;6.418;2024-03-07T02:07:10;7.40;99.90
12115;DHT22;6121;49.810;6.418;2024-03-07T02:12:06;7.10;99.90
12115;DHT22;6121;49.810;6.418;2024-03-07T02:14:32;7.20;99.90
12115;DHT22;6121;49.810;6.418;2024-03-07T02:16:59;7.20;99.90
12115;DHT22;6121;49.810;6.418;2024-03-07T02:21:51;7.10;99.90
12115;DHT22;6121;49.810;6.418;2024-03-07T02:24:17;7.20;99.90
12115;DHT22;6121;49.810;6.418;2024-03-07T02:29:09;7.00;99.90
12115;DHT22;6121;49.810;6.418;2024-03-07T02:31:36;7.30;99.90
12115;DHT22;6121;49.810;6.418;2024-03-07T02:34:03;7.10;99.90
12115;DHT22;6121;49.810;6.418;2024-03-07T02:36:29;7.00;99.90
12115;DHT22;6121;49.810;6.418;2024-03-07T02:41:22;7.00;99.90
12115;DHT22;6121;49.810;6.418;2024-03-07T02:43:48;7.30;99.90
12115;DHT22;6121;49.810;6.418;2024-03-07T02:46:14;8.00;99.90
12115;DHT22;6121;49.810;6.418;2024-03-07T02:48:40;7.00;99.90
12115;DHT22;6121;49.810;6.418;2024-03-07T02:51:07;6.90;99.90
12115;DHT22;6121;49.810;6.418;2024-03-07T02:53:33;6.80;99.90
12115;DHT22;6121;49.810;6.418;2024-03-07T02:55:59;6.80;99.90
12115;DHT22;6121;49.810;6.418;2024-03-07T02:58:25;6.80;99.90
12115;DHT22;6121;49.810;6.418;2024-03-07T03:00:59;6.90;99.90
12115;DHT22;6121;49.810;6.418;2024-03-07T03:03:29;6.70;99.90
12115;DHT22;6121;49.810;6.418;2024-03-07T03:05:59;6.60;99.90
12115;DHT22;6121;49.810;6.418;2024-03-07T03:08:28;6.40;99.90
12115;DHT22;6121;49.810;6.418;2024-03-07T03:13:23;6.20;99.90
12115;DHT22;6121;49.810;6.418;2024-03-07T03:15:50;6.20;99.90
12115;DHT22;6121;49.810;6.418;2024-03-07T03:20:42;6.00;99.90
12115;DHT22;6121;49.810;6.418;2024-03-07T03:23:09;6.20;99.90
12115;DHT22;6121;49.810;6.418;2024-03-07T03:25:39;6.00;99.90
12115;DHT22;6121;49.810;6.418;2024-03-07T03:28:05;6.10;99.90
12115;DHT22;6121;49.810;6.418;2024-03-07T03:33:00;5.80;99.90
12115;DHT22;6121;49.810;6.418;2024-03-07T03:35:26;5.90;99.90
12115;DHT22;6121;49.810;6.418;2024-03-07T03:40:18;5.80;99.90
12115;DHT22;6121;49.810;6.418;2024-03-07T03:42:44;5.60;99.90
12115;DHT22;6121;49.810;6.418;2024-03-07T03:45:10;5.40;99.90
12115;DHT22;6121;49.810;6.418;2024-03-07T03:52:35;5.10;99.90
12115;DHT22;6121;49.810;6.418;2024-03-07T03:55:05;5.00;99.90
12115;DHT22;6121;49.810;6.418;2024-03-07T03:59:59;5.10;99.90
12115;DHT22;6121;49.810;6.418;2024-03-07T04:02:25;5.10;99.90
12115;DHT22;6121;49.810;6.418;2024-03-07T04:04:52;5.20;99.90
12115;DHT22;6121;49.810;6.418;2024-03-07T04:09:45;5.10;99.90
12115;DHT22;6121;49.810;6.418;2024-03-07T04:14:39;5.00;99.90
12115;DHT22;6121;49.810;6.418;2024-03-07T04:17:10;5.00;99.90
12115;DHT22;6121;49.810;6.418;2024-03-07T04:19:41;4.90;99.90
12115;DHT22;6121;49.810;6.418;2024-03-07T04:22:07;4.80;99.90
12115;DHT22;6121;49.810;6.418;2024-03-07T04:24:36;4.80;99.90
12115;DHT22;6121;49.810;6.418;2024-03-07T04:27:04;4.90;99.90
12115;DHT22;6121;49.810;6.418;2024-03-07T04:29:33;4.70;99.90
12115;DHT22;6121;49.810;6.418;2024-03-07T04:32:00;4.60;99.90
12115;DHT22;6121;49.810;6.418;2024-03-07T04:34:30;4.50;99.90
12115;DHT22;6121;49.810;6.418;2024-03-07T04:37:00;4.50;99.90
12115;DHT22;6121;49.810;6.418;2024-03-07T04:39:29;4.30;99.90
12115;DHT22;6121;49.810;6.418;2024-03-07T04:42:02;4.40;99.90
12115;DHT22;6121;49.810;6.418;2024-03-07T04:44:28;4.50;99.90
12115;DHT22;6121;49.810;6.418;2024-03-07T04:49:26;4.20;99.90
12115;DHT22;6121;49.810;6.418;2024-03-07T04:54:24;4.30;99.90
12115;DHT22;6121;49.810;6.418;2024-03-07T04:56:51;4.30;99.90
12115;DHT22;6121;49.810;6.418;2024-03-07T04:59:19;4.30;99.90
12115;DHT22;6121;49.810;6.418;2024-03-07T05:01:45;4.20;99.90
12115;DHT22;6121;49.810;6.418;2024-03-07T05:06:39;4.10;99.90
12115;DHT22;6121;49.810;6.418;2024-03-07T05:09:07;4.10;99.90
12115;DHT22;6121;49.810;6.418;2024-03-07T05:11:35;4.00;99.90
12115;DHT22;6121;49.810;6.418;2024-03-07T05:14:02;4.00;99.90
12115;DHT22;6121;49.810;6.418;2024-03-07T05:16:29;3.80;99.90
12115;DHT22;6121;49.810;6.418;2024-03-07T05:18:55;3.90;99.90
12115;DHT22;6121;49.810;6.418;2024-03-07T05:21:26;3.80;99.90
12115;DHT22;6121;49.810;6.418;2024-03-07T05:24:07;3.70;99.90
12115;DHT22;6121;49.810;6.418;2024-03-07T05:26:37;3.60;99.90
12115;DHT22;6121;49.810;6.418;2024-03-07T05:29:05;3.60;99.90
12115;DHT22;6121;49.810;6.418;2024-03-07T05:31:34;3.60;99.90
12115;DHT22;6121;49.810;6.418;2024-03-07T05:34:07;3.50;99.90
12115;DHT22;6121;49.810;6.418;2024-03-07T05:39:10;3.40;99.90
12115;DHT22;6121;49.810;6.418;2024-03-07T05:41:41;3.30;99.90
12115;DHT22;6121;49.810;6.418;2024-03-07T05:46:40;3.50;99.90
12115;DHT22;6121;49.810;6.418;2024-03-07T05:49:08;3.70;99.90
12115;DHT22;6121;49.810;6.418;2024-03-07T05:51:34;3.40;99.90
12115;DHT22;6121;49.810;6.418;2024-03-07T05:54:00;3.50;99.90
12115;DHT22;6121;49.810;6.418;2024-03-07T05:56:26;3.40;99.90
12115;DHT22;6121;49.810;6.418;2024-03-07T06:03:45;3.30;99.90
12115;DHT22;6121;49.810;6.418;2024-03-07T06:06:13;3.20;99.90
12115;DHT22;6121;49.810;6.418;2024-03-07T06:08:39;3.00;99.90
12115;DHT22;6121;49.810;6.418;2024-03-07T06:11:08;3.10;99.90
12115;DHT22;6121;49.810;6.418;2024-03-07T06:18:31;3.10;99.90
12115;DHT22;6121;49.810;6.418;2024-03-07T06:20:57;2.90;99.90
12115;DHT22;6121;49.810;6.418;2024-03-07T06:23:23;3.00;99.90
12115;DHT22;6121;49.810;6.418;2024-03-07T06:25:49;2.90;99.90
12115;DHT22;6121;49.810;6.418;2024-03-07T06:28:20;2.90;99.90
12115;DHT22;6121;49.810;6.418;2024-03-07T06:33:13;3.10;99.90
12115;DHT22;6121;49.810;6.418;2024-03-07T06:35:39;3.20;99.90
12115;DHT22;6121;49.810;6.418;2024-03-07T06:40:40;3.30;99.90
12115;DHT22;6121;49.810;6.418;2024-03-07T06:43:08;3.40;99.90
12115;DHT22;6121;49.810;6.418;2024-03-07T06:45:38;3.30;99.90
12115;DHT22;6121;49.810;6.418;2024-03-07T06:48:05;3.40;99.90
12115;DHT22;6121;49.810;6.418;2024-03-07T06:50:34;3.50;99.90
12115;DHT22;6121;49.810;6.418;2024-03-07T06:53:01;3.80;99.90
12115;DHT22;6121;49.810;6.418;2024-03-07T06:57:53;3.60;99.90
12115;DHT22;6121;49.810;6.418;2024-03-07T07:02:47;3.80;99.90
12115;DHT22;6121;49.810;6.418;2024-03-07T07:05:14;4.00;99.90
12115;DHT22;6121;49.810;6.418;2024-03-07T07:07:44;4.00;99.90
12115;DHT22;6121;49.810;6.418;2024-03-07T07:10:11;4.20;99.90
12115;DHT22;6121;49.810;6.418;2024-03-07T07:17:47;5.10;99.90
12115;DHT22;6121;49.810;6.418;2024-03-07T07:22:47;5.30;99.90
12115;DHT22;6121;49.810;6.418;2024-03-07T07:25:13;5.50;99.90
12115;DHT22;6121;49.810;6.418;2024-03-07T07:27:50;5.90;99.90
12115;DHT22;6121;49.810;6.418;2024-03-07T07:32:44;5.90;99.90
12115;DHT22;6121;49.810;6.418;2024-03-07T07:35:11;5.90;99.90
12115;DHT22;6121;49.810;6.418;2024-03-07T07:40:09;6.10;99.90
12115;DHT22;6121;49.810;6.418;2024-03-07T07:42:39;6.10;99.90
12115;DHT22;6121;49.810;6.418;2024-03-07T07:45:09;6.30;99.90
12115;DHT22;6121;49.810;6.418;2024-03-07T07:47:52;6.30;99.90
12115;DHT22;6121;49.810;6.418;2024-03-07T07:52:54;6.50;99.90
12115;DHT22;6121;49.810;6.418;2024-03-07T08:00:16;6.50;99.90
12115;DHT22;6121;49.810;6.418;2024-03-07T08:02:59;6.50;99.90
12115;DHT22;6121;49.810;6.418;2024-03-07T08:05:27;6.60;99.90
12115;DHT22;6121;49.810;6.418;2024-03-07T08:10:23;6.70;99.90
12115;DHT22;6121;49.810;6.418;2024-03-07T08:17:43;7.50;99.90
12115;DHT22;6121;49.810;6.418;2024-03-07T08:27:41;8.70;99.90
12115;DHT22;6121;49.810;6.418;2024-03-07T08:30:08;8.70;99.90
12115;DHT22;6121;49.810;6.418;2024-03-07T08:35:09;8.90;99.90
12115;DHT22;6121;49.810;6.418;2024-03-07T08:45:08;9.10;99.90
12115;DHT22;6121;49.810;6.418;2024-03-07T08:52:35;9.20;99.90
12115;DHT22;6121;49.810;6.418;2024-03-07T08:55:02;9.30;99.90
12115;DHT22;6121;49.810;6.418;2024-03-07T08:57:29;9.70;99.90
12115;DHT22;6121;49.810;6.418;2024-03-07T08:59:55;10.00;99.90
12115;DHT22;6121;49.810;6.418;2024-03-07T09:02:20;10.00;99.90
12115;DHT22;6121;49.810;6.418;2024-03-07T09:04:46;10.00;99.90
12115;DHT22;6121;49.810;6.418;2024-03-07T09:07:12;10.30;99.90
12115;DHT22;6121;49.810;6.418;2024-03-07T09:09:41;10.10;99.90
12115;DHT22;6121;49.810;6.418;2024-03-07T09:14:35;10.20;99.90
12115;DHT22;6121;49.810;6.418;2024-03-07T09:17:01;10.20;99.90
12115;DHT22;6121;49.810;6.418;2024-03-07T09:19:27;10.50;99.90
12115;DHT22;6121;49.810;6.418;2024-03-07T09:21:54;11.00;99.90
12115;DHT22;6121;49.810;6.418;2024-03-07T09:24:21;11.10;99.90
12115;DHT22;6121;49.810;6.418;2024-03-07T09:26:50;11.70;99.90
12115;DHT22;6121;49.810;6.418;2024-03-07T09:29:19;12.30;99.90
12115;DHT22;6121;49.810;6.418;2024-03-07T09:36:40;13.00;99.90
12115;DHT22;6121;49.810;6.418;2024-03-07T09:39:09;12.00;99.90
12115;DHT22;6121;49.810;6.418;2024-03-07T09:41:35;12.20;99.90
12115;DHT22;6121;49.810;6.418;2024-03-07T09:44:02;11.80;99.90
12115;DHT22;6121;49.810;6.418;2024-03-07T09:46:28;11.60;99.90
12115;DHT22;6121;49.810;6.418;2024-03-07T09:48:58;11.80;99.90
12115;DHT22;6121;49.810;6.418;2024-03-07T09:51:24;11.80;99.90
12115;DHT22;6121;49.810;6.418;2024-03-07T09:53:52;11.50;99.90
12115;DHT22;6121;49.810;6.418;2024-03-07T09:58:51;11.60;99.90
12115;DHT22;6121;49.810;6.418;2024-03-07T10:01:21;12.50;99.90
12115;DHT22;6121;49.810;6.418;2024-03-07T10:03:48;13.20;99.90
12115;DHT22;6121;49.810;6.418;2024-03-07T10:11:09;12.60;99.90
12115;DHT22;6121;49.810;6.418;2024-03-07T10:13:35;12.20;99.90
12115;DHT22;6121;49.810;6.418;2024-03-07T10:18:27;13.40;99.90
12115;DHT22;6121;49.810;6.418;2024-03-07T10:20:54;14.10;99.90
12115;DHT22;6121;49.810;6.418;2024-03-07T10:23:21;14.10;99.90
12115;DHT22;6121;49.810;6.418;2024-03-07T10:25:48;13.50;99.90
12115;DHT22;6121;49.810;6.418;2024-03-07T10:28:16;13.20;99.90
12115;DHT22;6121;49.810;6.418;2024-03-07T10:33:13;11.80;99.90
12115;DHT22;6121;49.810;6.418;2024-03-07T10:35:39;11.10;99.90
12115;DHT22;6121;49.810;6.418;2024-03-07T10:40:33;11.10;99.90
12115;DHT22;6121;49.810;6.418;2024-03-07T10:43:01;10.90;99.90
12115;DHT22;6121;49.810;6.418;2024-03-07T10:45:29;10.90;99.90
12115;DHT22;6121;49.810;6.418;2024-03-07T10:47:57;10.70;99.90
12115;DHT22;6121;49.810;6.418;2024-03-07T10:52:59;10.40;99.90
12115;DHT22;6121;49.810;6.418;2024-03-07T10:55:31;10.30;99.90
12115;DHT22;6121;49.810;6.418;2024-03-07T10:58:09;10.50;99.90
12115;DHT22;6121;49.810;6.418;2024-03-07T11:00:38;10.20;99.90
12115;DHT22;6121;49.810;6.418;2024-03-07T11:03:11;10.70;99.90
12115;DHT22;6121;49.810;6.418;2024-03-07T11:05:37;10.40;99.90
12115;DHT22;6121;49.810;6.418;2024-03-07T11:08:04;11.40;99.90
12115;DHT22;6121;49.810;6.418;2024-03-07T11:13:07;11.90;99.90
12115;DHT22;6121;49.810;6.418;2024-03-07T11:15:36;12.00;99.90
12115;DHT22;6121;49.810;6.418;2024-03-07T11:18:03;11.70;99.90
12115;DHT22;6121;49.810;6.418;2024-03-07T11:20:37;11.30;99.90
12115;DHT22;6121;49.810;6.418;2024-03-07T11:23:29;11.30;99.90
12115;DHT22;6121;49.810;6.418;2024-03-07T11:28:29;12.00;99.90
12115;DHT22;6121;49.810;6.418;2024-03-07T11:31:25;13.00;99.90
12115;DHT22;6121;49.810;6.418;2024-03-07T11:34:11;12.90;99.90
12115;DHT22;6121;49.810;6.418;2024-03-07T11:36:45;12.80;99.90
12115;DHT22;6121;49.810;6.418;2024-03-07T11:42:05;11.50;99.90
12115;DHT22;6121;49.810;6.418;2024-03-07T11:47:03;11.60;99.90
12115;DHT22;6121;49.810;6.418;2024-03-07T11:54:40;11.70;99.90
12115;DHT22;6121;49.810;6.418;2024-03-07T11:57:12;12.50;99.90
12115;DHT22;6121;49.810;6.418;2024-03-07T11:59:40;13.60;99.90
12115;DHT22;6121;49.810;6.418;2024-03-07T12:02:14;12.40;99.90
12115;DHT22;6121;49.810;6.418;2024-03-07T12:04:47;12.10;99.90
12115;DHT22;6121;49.810;6.418;2024-03-07T12:07:15;13.30;99.90
12115;DHT22;6121;49.810;6.418;2024-03-07T12:09:44;13.60;99.90
12115;DHT22;6121;49.810;6.418;2024-03-07T12:12:17;13.20;99.90
12115;DHT22;6121;49.810;6.418;2024-03-07T12:14:43;13.00;99.90
12115;DHT22;6121;49.810;6.418;2024-03-07T12:17:09;12.80;99.90
12115;DHT22;6121;49.810;6.418;2024-03-07T12:19:36;13.40;99.90
12115;DHT22;6121;49.810;6.418;2024-03-07T12:24:59;13.50;99.00
12115;DHT22;6121;49.810;6.418;2024-03-07T12:29:55;14.20;99.10
12115;DHT22;6121;49.810;6.418;2024-03-07T12:32:21;14.40;99.40
12115;DHT22;6121;49.810;6.418;2024-03-07T12:37:14;14.20;98.50
12115;DHT22;6121;49.810;6.418;2024-03-07T12:39:44;14.20;98.50
12115;DHT22;6121;49.810;6.418;2024-03-07T12:42:15;14.10;97.20
12115;DHT22;6121;49.810;6.418;2024-03-07T12:47:12;13.00;97.90
12115;DHT22;6121;49.810;6.418;2024-03-07T12:49:43;13.10;98.00
12115;DHT22;6121;49.810;6.418;2024-03-07T12:52:11;12.80;97.70
12115;DHT22;6121;49.810;6.418;2024-03-07T12:54:41;12.60;98.00
12115;DHT22;6121;49.810;6.418;2024-03-07T12:57:07;12.60;98.30
12115;DHT22;6121;49.810;6.418;2024-03-07T12:59:41;12.80;99.30
12115;DHT22;6121;49.810;6.418;2024-03-07T13:02:11;12.60;98.80
12115;DHT22;6121;49.810;6.418;2024-03-07T13:04:38;12.50;98.80
12115;DHT22;6121;49.810;6.418;2024-03-07T13:07:05;12.40;98.70
12115;DHT22;6121;49.810;6.418;2024-03-07T13:11:58;11.70;97.90
12115;DHT22;6121;49.810;6.418;2024-03-07T13:16:59;12.20;99.30
12115;DHT22;6121;49.810;6.418;2024-03-07T13:19:27;12.40;99.20
12115;DHT22;6121;49.810;6.418;2024-03-07T13:21:53;12.90;99.60
12115;DHT22;6121;49.810;6.418;2024-03-07T13:29:16;11.90;99.00
12115;DHT22;6121;49.810;6.418;2024-03-07T13:31:44;11.40;99.20
12115;DHT22;6121;49.810;6.418;2024-03-07T13:36:42;11.40;99.00
12115;DHT22;6121;49.810;6.418;2024-03-07T13:39:09;11.10;99.50
12115;DHT22;6121;49.810;6.418;2024-03-07T13:44:10;11.20;99.90
12115;DHT22;6121;49.810;6.418;2024-03-07T13:46:36;11.50;99.80
12115;DHT22;6121;49.810;6.418;2024-03-07T13:51:41;11.60;99.60
12115;DHT22;6121;49.810;6.418;2024-03-07T13:54:19;11.50;99.80
12115;DHT22;6121;49.810;6.418;2024-03-07T13:57:23;11.20;99.90
12115;DHT22;6121;49.810;6.418;2024-03-07T13:59:56;10.90;99.90
12115;DHT22;6121;49.810;6.418;2024-03-07T14:16:13;10.90;99.90
12115;DHT22;6121;49.810;6.418;2024-03-07T14:24:56;10.60;99.90
12115;DHT22;6121;49.810;6.418;2024-03-07T14:32:37;10.90;99.90
12115;DHT22;6121;49.810;6.418;2024-03-07T14:35:22;10.90;99.90
12115;DHT22;6121;49.810;6.418;2024-03-07T14:38:02;10.90;99.90
12115;DHT22;6121;49.810;6.418;2024-03-07T14:40:28;10.80;99.90
12115;DHT22;6121;49.810;6.418;2024-03-07T14:42:56;10.70;99.90
12115;DHT22;6121;49.810;6.418;2024-03-07T14:47:57;10.70;99.90
12115;DHT22;6121;49.810;6.418;2024-03-07T14:50:24;11.00;99.90
12115;DHT22;6121;49.810;6.418;2024-03-07T14:52:53;11.00;99.90
12115;DHT22;6121;49.810;6.418;2024-03-07T14:55:19;10.90;99.90
12115;DHT22;6121;49.810;6.418;2024-03-07T14:57:47;11.00;99.90
12115;DHT22;6121;49.810;6.418;2024-03-07T15:07:43;10.80;99.90
12115;DHT22;6121;49.810;6.418;2024-03-07T15:12:47;10.50;99.90
12115;DHT22;6121;49.810;6.418;2024-03-07T15:17:44;10.60;99.90
12115;DHT22;6121;49.810;6.418;2024-03-07T15:22:55;10.60;99.90
12115;DHT22;6121;49.810;6.418;2024-03-07T15:27:55;10.70;99.90
12115;DHT22;6121;49.810;6.418;2024-03-07T15:30:27;10.40;99.90
12115;DHT22;6121;49.810;6.418;2024-03-07T15:33:05;10.20;99.90
12115;DHT22;6121;49.810;6.418;2024-03-07T15:35:31;10.30;99.90
12115;DHT22;6121;49.810;6.418;2024-03-07T15:37:58;10.30;99.90
12115;DHT22;6121;49.810;6.418;2024-03-07T15:40:24;10.00;99.90
12115;DHT22;6121;49.810;6.418;2024-03-07T15:42:55;9.90;99.90
12115;DHT22;6121;49.810;6.418;2024-03-07T15:55:17;10.30;99.90
12115;DHT22;6121;49.810;6.418;2024-03-07T15:57:49;10.20;99.90
12115;DHT22;6121;49.810;6.418;2024-03-07T16:00:16;10.40;99.90
12115;DHT22;6121;49.810;6.418;2024-03-07T16:03:00;10.30;99.90
12115;DHT22;6121;49.810;6.418;2024-03-07T16:05:28;9.80;99.90
12115;DHT22;6121;49.810;6.418;2024-03-07T16:10:26;9.90;99.90
12115;DHT22;6121;49.810;6.418;2024-03-07T16:12:59;9.60;99.90
12115;DHT22;6121;49.810;6.418;2024-03-07T16:15:27;9.60;99.90
12115;DHT22;6121;49.810;6.418;2024-03-07T16:22:51;9.70;99.90
12115;DHT22;6121;49.810;6.418;2024-03-07T16:25:18;9.30;99.90
12115;DHT22;6121;49.810;6.418;2024-03-07T16:30:13;9.50;99.90
12115;DHT22;6121;49.810;6.418;2024-03-07T16:32:40;9.40;99.90
12115;DHT22;6121;49.810;6.418;2024-03-07T16:35:07;9.30;99.90
12115;DHT22;6121;49.810;6.418;2024-03-07T16:37:45;9.50;99.90
12115;DHT22;6121;49.810;6.418;2024-03-07T16:40:13;9.40;99.90
12115;DHT22;6121;49.810;6.418;2024-03-07T16:42:43;9.30;99.90
12115;DHT22;6121;49.810;6.418;2024-03-07T16:47:40;9.30;99.90
12115;DHT22;6121;49.810;6.418;2024-03-07T16:50:07;9.20;99.90
12115;DHT22;6121;49.810;6.418;2024-03-07T16:52:41;9.10;99.90
12115;DHT22;6121;49.810;6.418;2024-03-07T16:55:09;9.20;99.90
12115;DHT22;6121;49.810;6.418;2024-03-07T16:57:43;9.20;99.90
12115;DHT22;6121;49.810;6.418;2024-03-07T17:00:11;9.20;99.90
12115;DHT22;6121;49.810;6.418;2024-03-07T17:02:46;8.90;99.90
12115;DHT22;6121;49.810;6.418;2024-03-07T17:12:43;9.10;99.90
12115;DHT22;6121;49.810;6.418;2024-03-07T17:15:12;8.90;99.90
12115;DHT22;6121;49.810;6.418;2024-03-07T17:17:40;8.80;99.90
12115;DHT22;6121;49.810;6.418;2024-03-07T17:20:07;9.00;99.90
12115;DHT22;6121;49.810;6.418;2024-03-07T17:22:35;8.90;99.90
12115;DHT22;6121;49.810;6.418;2024-03-07T17:27:30;8.70;99.90
12115;DHT22;6121;49.810;6.418;2024-03-07T17:29:56;8.80;99.90
12115;DHT22;6121;49.810;6.418;2024-03-07T17:32:24;8.80;99.90
12115;DHT22;6121;49.810;6.418;2024-03-07T17:34:50;8.90;99.90
12115;DHT22;6121;49.810;6.418;2024-03-07T17:37:16;8.70;99.90
12115;DHT22;6121;49.810;6.418;2024-03-07T17:39:42;8.70;99.90
12115;DHT22;6121;49.810;6.418;2024-03-07T17:42:10;8.80;99.90
12115;DHT22;6121;49.810;6.418;2024-03-07T17:44:39;8.70;99.90
12115;DHT22;6121;49.810;6.418;2024-03-07T17:47:05;8.60;99.90
12115;DHT22;6121;49.810;6.418;2024-03-07T17:49:39;8.60;99.90
12115;DHT22;6121;49.810;6.418;2024-03-07T17:54:39;8.50;99.90
12115;DHT22;6121;49.810;6.418;2024-03-07T17:59:43;8.40;99.90
12115;DHT22;6121;49.810;6.418;2024-03-07T18:02:15;8.30;99.90
12115;DHT22;6121;49.810;6.418;2024-03-07T18:04:45;8.30;99.90
12115;DHT22;6121;49.810;6.418;2024-03-07T18:09:48;8.30;99.90
12115;DHT22;6121;49.810;6.418;2024-03-07T18:12:14;8.20;99.90
12115;DHT22;6121;49.810;6.418;2024-03-07T18:14:41;8.20;99.90
12115;DHT22;6121;49.810;6.418;2024-03-07T18:17:07;8.10;99.90
12115;DHT22;6121;49.810;6.418;2024-03-07T18:22:00;8.00;99.90
12115;DHT22;6121;49.810;6.418;2024-03-07T18:24:26;8.20;99.90
12115;DHT22;6121;49.810;6.418;2024-03-07T18:26:53;7.90;99.90
12115;DHT22;6121;49.810;6.418;2024-03-07T18:29:19;8.00;99.90
12115;DHT22;6121;49.810;6.418;2024-03-07T18:31:47;7.90;99.90
12115;DHT22;6121;49.810;6.418;2024-03-07T18:34:15;7.90;99.90
12115;DHT22;6121;49.810;6.418;2024-03-07T18:36:43;7.80;99.90
12115;DHT22;6121;49.810;6.418;2024-03-07T18:39:10;7.80;99.90
12115;DHT22;6121;49.810;6.418;2024-03-07T18:41:41;7.80;99.90
12115;DHT22;6121;49.810;6.418;2024-03-07T18:44:10;7.70;99.90
12115;DHT22;6121;49.810;6.418;2024-03-07T18:46:39;7.60;99.90
12115;DHT22;6121;49.810;6.418;2024-03-07T18:51:35;7.50;99.90
12115;DHT22;6121;49.810;6.418;2024-03-07T18:56:34;7.20;99.90
12115;DHT22;6121;49.810;6.418;2024-03-07T18:59:01;7.20;99.90
12115;DHT22;6121;49.810;6.418;2024-03-07T19:04:03;7.00;99.90
12115;DHT22;6121;49.810;6.418;2024-03-07T19:06:36;6.90;99.90
12115;DHT22;6121;49.810;6.418;2024-03-07T19:11:29;6.70;99.90
12115;DHT22;6121;49.810;6.418;2024-03-07T19:16:21;6.40;99.90
12115;DHT22;6121;49.810;6.418;2024-03-07T19:18:47;6.50;99.90
12115;DHT22;6121;49.810;6.418;2024-03-07T19:23:41;6.20;99.90
12115;DHT22;6121;49.810;6.418;2024-03-07T19:26:10;6.20;99.90
12115;DHT22;6121;49.810;6.418;2024-03-07T19:28:37;5.90;99.90
12115;DHT22;6121;49.810;6.418;2024-03-07T19:35:57;5.60;99.90
12115;DHT22;6121;49.810;6.418;2024-03-07T19:40:52;5.50;99.90
12115;DHT22;6121;49.810;6.418;2024-03-07T19:43:18;5.70;99.90
12115;DHT22;6121;49.810;6.418;2024-03-07T19:45:50;5.60;99.90
12115;DHT22;6121;49.810;6.418;2024-03-07T19:48:17;5.60;99.90
12115;DHT22;6121;49.810;6.418;2024-03-07T19:50:46;5.60;99.90
12115;DHT22;6121;49.810;6.418;2024-03-07T19:53:13;5.40;99.90
12115;DHT22;6121;49.810;6.418;2024-03-07T19:55:40;5.40;99.90
12115;DHT22;6121;49.810;6.418;2024-03-07T19:58:08;5.30;99.90
12115;DHT22;6121;49.810;6.418;2024-03-07T20:00:34;5.30;99.90
12115;DHT22;6121;49.810;6.418;2024-03-07T20:03:01;5.30;99.90
12115;DHT22;6121;49.810;6.418;2024-03-07T20:05:28;5.10;99.90
12115;DHT22;6121;49.810;6.418;2024-03-07T20:10:28;4.90;99.90
12115;DHT22;6121;49.810;6.418;2024-03-07T20:12:58;5.00;99.90
12115;DHT22;6121;49.810;6.418;2024-03-07T20:17:51;4.70;99.90
12115;DHT22;6121;49.810;6.418;2024-03-07T20:22:50;4.80;99.90
12115;DHT22;6121;49.810;6.418;2024-03-07T20:25:20;4.70;99.90
12115;DHT22;6121;49.810;6.418;2024-03-07T20:27:48;4.70;99.90
12115;DHT22;6121;49.810;6.418;2024-03-07T20:30:15;4.70;99.90
12115;DHT22;6121;49.810;6.418;2024-03-07T20:32:41;4.80;99.90
12115;DHT22;6121;49.810;6.418;2024-03-07T20:35:08;4.80;99.90
12115;DHT22;6121;49.810;6.418;2024-03-07T20:40:02;4.60;99.90
12115;DHT22;6121;49.810;6.418;2024-03-07T20:42:34;4.60;99.90
12115;DHT22;6121;49.810;6.418;2024-03-07T20:45:08;4.60;99.90
12115;DHT22;6121;49.810;6.418;2024-03-07T20:47:39;4.50;99.90
12115;DHT22;6121;49.810;6.418;2024-03-07T20:55:07;4.40;99.90
12115;DHT22;6121;49.810;6.418;2024-03-07T20:57:33;4.50;99.90
12115;DHT22;6121;49.810;6.418;2024-03-07T20:59:59;4.60;99.90
12115;DHT22;6121;49.810;6.418;2024-03-07T21:02:29;4.60;99.90
12115;DHT22;6121;49.810;6.418;2024-03-07T21:04:55;4.60;99.90
12115;DHT22;6121;49.810;6.418;2024-03-07T21:09:47;4.70;99.90
12115;DHT22;6121;49.810;6.418;2024-03-07T21:12:13;4.70;99.90
12115;DHT22;6121;49.810;6.418;2024-03-07T21:17:06;4.50;99.90
12115;DHT22;6121;49.810;6.418;2024-03-07T21:19:36;4.30;99.90
12115;DHT22;6121;49.810;6.418;2024-03-07T21:22:02;4.10;99.90
12115;DHT22;6121;49.810;6.418;2024-03-07T21:24:28;3.90;99.90
12115;DHT22;6121;49.810;6.418;2024-03-07T21:26:54;3.90;99.90
12115;DHT22;6121;49.810;6.418;2024-03-07T21:29:20;3.90;99.90
12115;DHT22;6121;49.810;6.418;2024-03-07T21:31:46;4.00;99.90